createdAt,value
2018-12-05T00:01:27.984Z,66.51
2018-12-05T00:03:54.375Z,65.85
2018-12-05T00:06:20.623Z,66.17
2018-12-05T00:08:48.817Z,66.08
2018-12-05T00:11:15.965Z,66.14
2018-12-05T00:13:42.157Z,66.32
2018-12-05T00:16:08.389Z,66.13
2018-12-05T00:18:34.622Z,66.28
2018-12-05T00:21:00.847Z,65.65
2018-12-05T00:23:27.022Z,66.03
2018-12-05T00:25:53.179Z,66.57
2018-12-05T00:28:19.442Z,66.14
2018-12-05T00:30:45.713Z,65.73
2018-12-05T00:33:11.885Z,66.01
2018-12-05T00:35:38.280Z,66.50
2018-12-05T00:38:05.578Z,66.24
2018-12-05T00:40:31.886Z,65.82
2018-12-05T00:42:58.030Z,66.33
2018-12-05T00:45:24.412Z,66.92
2018-12-05T00:47:50.664Z,66.30
2018-12-05T00:50:16.884Z,65.91
2018-12-05T00:52:43.144Z,66.51
2018-12-05T00:55:09.453Z,66.19
2018-12-05T00:57:35.679Z,66.51
2018-12-05T01:00:02.601Z,66.22
2018-12-05T01:02:28.974Z,66.28
2018-12-05T01:04:55.327Z,66.01
2018-12-05T01:07:21.597Z,66.10
2018-12-05T01:09:47.832Z,66.20
2018-12-05T01:12:14.115Z,66.43
2018-12-05T01:14:40.361Z,66.26
2018-12-05T01:17:06.899Z,66.20
2018-12-05T01:19:33.380Z,66.31
2018-12-05T01:21:59.756Z,66.90
2018-12-05T01:24:26.281Z,66.28
2018-12-05T01:26:52.784Z,67.07
2018-12-05T01:29:19.089Z,66.99
2018-12-05T01:31:45.337Z,67.12
2018-12-05T01:34:12.244Z,67.37
2018-12-05T01:36:38.510Z,66.72
2018-12-05T01:39:05.971Z,66.98
2018-12-05T01:41:32.176Z,66.39
2018-12-05T01:43:58.450Z,67.04
2018-12-05T01:46:24.753Z,66.84
2018-12-05T01:48:51.024Z,66.90
2018-12-05T01:51:17.359Z,67.39
2018-12-05T01:53:43.622Z,67.05
2018-12-05T01:56:09.952Z,67.29
2018-12-05T01:58:36.209Z,67.20
2018-12-05T02:03:58.377Z,67.88
2018-12-05T02:06:24.735Z,68.46
2018-12-05T02:08:51.065Z,67.97
2018-12-05T02:11:17.317Z,68.27
2018-12-05T02:13:43.581Z,68.09
2018-12-05T02:16:09.934Z,68.26
2018-12-05T02:18:36.279Z,68.26
2018-12-05T02:21:02.843Z,68.67
2018-12-05T02:23:29.354Z,69.11
2018-12-05T02:25:55.671Z,68.92
2018-12-05T02:28:21.940Z,68.54
2018-12-05T02:30:48.346Z,68.65
2018-12-05T02:33:14.639Z,68.25
2018-12-05T02:35:40.893Z,68.31
2018-12-05T02:38:07.149Z,68.86
2018-12-05T02:40:33.337Z,68.38
2018-12-05T02:42:59.596Z,68.68
2018-12-05T02:45:25.936Z,68.82
2018-12-05T02:47:52.122Z,68.52
2018-12-05T02:50:18.383Z,69.08
2018-12-05T02:52:44.674Z,68.81
2018-12-05T02:55:11.345Z,69.07
2018-12-05T02:57:37.610Z,69.57
2018-12-05T03:00:05.208Z,69.36
2018-12-05T03:02:31.446Z,69.35
2018-12-05T03:04:57.858Z,69.73
2018-12-05T03:07:24.107Z,70.01
2018-12-05T03:09:50.351Z,69.57
2018-12-05T03:12:16.580Z,69.72
2018-12-05T03:14:42.839Z,70.45
2018-12-05T03:17:09.089Z,69.90
2018-12-05T03:19:35.391Z,70.22
2018-12-05T03:22:01.670Z,70.33
2018-12-05T03:24:28.463Z,69.94
2018-12-05T03:26:54.638Z,70.04
2018-12-05T03:29:20.777Z,69.68
2018-12-05T03:31:47.027Z,70.20
2018-12-05T03:34:13.275Z,70.29
2018-12-05T03:36:39.642Z,70.42
2018-12-05T03:39:07.972Z,70.70
2018-12-05T03:41:35.320Z,70.66
2018-12-05T03:44:01.503Z,70.74
2018-12-05T03:46:27.772Z,71.02
2018-12-05T03:48:53.997Z,70.66
2018-12-05T03:51:20.280Z,71.14
2018-12-05T03:53:46.439Z,70.73
2018-12-05T03:56:12.800Z,71.74
2018-12-05T03:58:39.147Z,71.36
2018-12-05T04:01:05.561Z,72.08
2018-12-05T04:03:31.806Z,72.10
2018-12-05T04:05:58.103Z,72.48
2018-12-05T04:08:24.218Z,72.31
2018-12-05T04:10:50.369Z,71.87
2018-12-05T04:13:16.491Z,71.90
2018-12-05T04:15:42.617Z,71.94
2018-12-05T04:18:08.741Z,71.68
2018-12-05T04:20:34.884Z,71.84
2018-12-05T04:23:01.109Z,71.41
2018-12-05T04:25:27.678Z,71.24
2018-12-05T04:27:53.827Z,70.65
2018-12-05T04:30:20.205Z,70.36
2018-12-05T04:32:46.631Z,70.37
2018-12-05T04:35:12.748Z,69.60
2018-12-05T04:37:38.979Z,70.33
2018-12-05T04:40:05.250Z,69.95
2018-12-05T04:42:31.561Z,69.74
2018-12-05T04:44:58.591Z,69.17
2018-12-05T04:47:24.883Z,69.31
2018-12-05T04:49:51.211Z,68.95
2018-12-05T04:52:17.482Z,69.50
2018-12-05T04:54:43.610Z,70.19
2018-12-05T04:57:09.838Z,70.74
2018-12-05T04:59:36.024Z,70.70
2018-12-05T05:02:02.674Z,71.29
2018-12-05T05:04:28.823Z,71.29
2018-12-05T05:06:54.946Z,71.80
2018-12-05T05:09:21.017Z,72.29
2018-12-05T05:11:47.313Z,72.46
2018-12-05T05:14:13.408Z,72.28
2018-12-05T05:16:39.634Z,72.52
2018-12-05T05:19:05.756Z,72.57
2018-12-05T05:21:31.887Z,72.65
2018-12-05T05:23:58.088Z,72.56
2018-12-05T05:26:25.226Z,73.05
2018-12-05T05:28:51.354Z,73.34
2018-12-05T05:31:17.577Z,73.44
2018-12-05T05:33:44.567Z,73.34
2018-12-05T05:36:11.032Z,73.34
2018-12-05T05:38:37.169Z,73.89
2018-12-05T05:41:03.824Z,73.54
2018-12-05T05:43:30.034Z,73.34
2018-12-05T05:45:56.121Z,73.40
2018-12-05T05:48:22.345Z,73.91
2018-12-05T05:50:48.568Z,73.84
2018-12-05T05:53:14.801Z,74.05
2018-12-05T05:55:40.925Z,74.27
2018-12-05T05:58:07.034Z,74.07
2018-12-05T06:00:33.241Z,73.98
2018-12-05T06:02:59.371Z,74.29
2018-12-05T06:05:25.607Z,74.15
2018-12-05T06:07:51.902Z,74.44
2018-12-05T06:10:17.985Z,73.87
2018-12-05T06:12:44.221Z,74.41
2018-12-05T06:15:10.333Z,73.45
2018-12-05T06:17:36.477Z,74.13
2018-12-05T06:20:03.375Z,74.83
2018-12-05T06:22:29.475Z,74.77
2018-12-05T06:24:55.698Z,75.02
2018-12-05T06:27:21.908Z,74.75
2018-12-05T06:29:48.013Z,74.97
2018-12-05T06:32:14.214Z,74.48
2018-12-05T06:34:40.354Z,74.58
2018-12-05T06:37:06.583Z,74.56
2018-12-05T06:39:32.701Z,74.38
2018-12-05T06:41:59.056Z,74.62
2018-12-05T06:44:25.235Z,74.20
2018-12-05T06:46:51.582Z,74.59
2018-12-05T06:49:17.798Z,74.48
2018-12-05T06:51:44.028Z,74.64
2018-12-05T06:54:10.203Z,74.81
2018-12-05T06:56:36.331Z,75.11
2018-12-05T06:59:02.573Z,75.67
2018-12-05T07:01:28.776Z,75.48
2018-12-05T07:03:59.614Z,74.57
2018-12-05T07:06:25.728Z,74.60
2018-12-05T07:08:52.053Z,74.37
2018-12-05T07:11:18.246Z,74.25
2018-12-05T07:13:44.562Z,74.10
2018-12-05T07:16:10.865Z,74.24
2018-12-05T07:18:37.035Z,73.95
2018-12-05T07:21:03.354Z,73.89
2018-12-05T07:23:29.561Z,74.05
2018-12-05T07:25:55.775Z,73.25
2018-12-05T07:28:21.869Z,73.18
2018-12-05T07:30:48.131Z,73.63
2018-12-05T07:33:14.490Z,73.44
2018-12-05T07:35:40.597Z,73.44
2018-12-05T07:38:06.962Z,73.16
2018-12-05T07:40:33.282Z,72.97
2018-12-05T07:42:59.509Z,72.52
2018-12-05T07:45:25.661Z,72.37
2018-12-05T07:47:51.758Z,72.05
2018-12-05T07:50:18.126Z,72.12
2018-12-05T07:52:44.288Z,71.96
2018-12-05T07:55:10.417Z,72.28
2018-12-05T07:57:43.783Z,72.06
2018-12-05T08:00:09.947Z,71.81
2018-12-05T08:02:36.058Z,71.67
2018-12-05T08:05:02.473Z,71.28
2018-12-05T08:07:28.692Z,71.45
2018-12-05T08:09:54.782Z,71.51
2018-12-05T08:12:21.007Z,71.10
2018-12-05T08:14:47.225Z,70.83
2018-12-05T08:17:13.503Z,70.40
2018-12-05T08:19:39.819Z,69.38
2018-12-05T08:22:06.130Z,69.27
2018-12-05T08:24:32.426Z,68.44
2018-12-05T08:26:58.548Z,68.53
2018-12-05T08:29:24.646Z,68.61
2018-12-05T08:31:50.972Z,67.54
2018-12-05T08:34:17.170Z,67.71
2018-12-05T08:36:43.269Z,66.99
2018-12-05T08:39:09.486Z,67.10
2018-12-05T08:41:35.705Z,67.31
2018-12-05T08:44:02.036Z,66.83
2018-12-05T08:46:28.247Z,66.84
2018-12-05T08:48:54.407Z,66.00
2018-12-05T08:51:20.636Z,65.43
2018-12-05T08:53:46.751Z,64.72
2018-12-05T08:56:13.157Z,65.05
2018-12-05T08:58:39.305Z,64.82
2018-12-05T09:01:05.542Z,65.00
2018-12-05T09:03:31.770Z,64.97
2018-12-05T09:05:57.914Z,64.45
2018-12-05T09:08:24.249Z,63.85
2018-12-05T09:10:51.591Z,63.21
2018-12-05T09:13:17.833Z,63.33
2018-12-05T09:15:43.936Z,63.12
2018-12-05T09:18:10.127Z,62.45
2018-12-05T09:20:36.373Z,62.64
2018-12-05T09:23:02.698Z,61.83
2018-12-05T09:25:28.941Z,61.69
2018-12-05T09:27:55.202Z,61.70
2018-12-05T09:30:21.343Z,62.00
2018-12-05T09:32:47.594Z,61.07
2018-12-05T09:35:13.714Z,61.35
2018-12-05T09:37:39.915Z,60.94
2018-12-05T09:40:06.252Z,60.66
2018-12-05T09:42:32.589Z,60.78
2018-12-05T09:44:58.869Z,59.99
2018-12-05T09:47:24.963Z,60.12
2018-12-05T09:49:51.187Z,60.43
2018-12-05T09:52:17.433Z,59.79
2018-12-05T09:54:43.633Z,59.76
2018-12-05T09:57:09.805Z,58.94
2018-12-05T09:59:36.013Z,59.51
2018-12-05T10:02:02.434Z,58.44
2018-12-05T10:04:28.648Z,58.67
2018-12-05T10:06:54.908Z,58.49
2018-12-05T10:09:21.033Z,59.32
2018-12-05T10:11:47.153Z,58.89
2018-12-05T10:14:13.283Z,58.33
2018-12-05T10:16:39.350Z,58.16
2018-12-05T10:19:05.461Z,58.58
2018-12-05T10:21:31.857Z,58.22
2018-12-05T10:23:58.109Z,58.29
2018-12-05T10:26:24.310Z,58.30
2018-12-05T10:28:50.719Z,58.90
2018-12-05T10:31:16.910Z,58.69
2018-12-05T10:33:43.026Z,58.53
2018-12-05T10:36:09.131Z,58.58
2018-12-05T10:38:35.300Z,57.73
2018-12-05T10:41:01.555Z,58.42
2018-12-05T10:43:27.744Z,57.92
2018-12-05T10:45:54.105Z,57.33
2018-12-05T10:48:20.364Z,57.82
2018-12-05T10:50:46.440Z,57.17
2018-12-05T10:53:12.650Z,55.85
2018-12-05T10:55:38.782Z,53.20
2018-12-05T10:58:05.026Z,52.32
2018-12-05T11:00:37.632Z,49.93
2018-12-05T11:03:10.055Z,47.41
2018-12-05T11:05:42.633Z,45.30
2018-12-05T11:08:15.054Z,42.34
2018-12-05T11:10:47.258Z,40.52
2018-12-05T11:13:26.481Z,38.17
2018-12-05T11:15:59.097Z,36.60
2018-12-05T11:18:32.887Z,35.03
2018-12-05T11:21:05.638Z,33.55
2018-12-05T11:23:38.009Z,33.58
2018-12-05T11:26:06.274Z,31.85
2018-12-05T11:28:32.668Z,29.60
2018-12-05T11:30:58.875Z,28.72
2018-12-05T11:33:25.078Z,26.77
2018-12-05T11:35:52.314Z,25.33
2018-12-05T11:38:18.497Z,23.90
2018-12-05T11:40:44.694Z,22.54
2018-12-05T11:43:11.606Z,22.91
2018-12-05T11:45:37.962Z,21.78
2018-12-05T11:48:04.257Z,21.13
2018-12-05T11:50:30.361Z,20.26
2018-12-05T11:52:57.138Z,20.36
2018-12-05T11:55:23.454Z,21.07
2018-12-05T11:57:49.530Z,19.71
2018-12-05T12:00:15.845Z,20.05
2018-12-05T12:02:42.022Z,18.16
2018-12-05T12:05:08.401Z,17.29
2018-12-05T12:07:41.440Z,16.33
2018-12-05T12:10:07.881Z,17.01
2018-12-05T12:12:40.402Z,16.16
2018-12-05T12:15:06.769Z,16.34
2018-12-05T12:17:33.118Z,16.41
2018-12-05T12:19:59.245Z,16.49
2018-12-05T12:22:25.571Z,16.19
2018-12-05T12:24:51.734Z,16.23
2018-12-05T12:27:17.951Z,16.16
2018-12-05T12:29:44.184Z,16.20
2018-12-05T12:32:10.453Z,16.67
2018-12-05T12:34:43.626Z,16.34
2018-12-05T12:37:09.830Z,17.22
2018-12-05T12:39:35.999Z,16.79
2018-12-05T12:42:02.353Z,17.54
2018-12-05T12:44:28.461Z,17.27
2018-12-05T12:46:54.573Z,16.88
2018-12-05T12:49:20.816Z,15.82
2018-12-05T12:51:46.994Z,16.04
2018-12-05T12:54:13.225Z,16.91
2018-12-05T12:56:39.496Z,17.95
2018-12-05T12:59:05.602Z,18.00
2018-12-05T13:01:31.839Z,18.72
2018-12-05T13:03:57.954Z,17.92
2018-12-05T13:06:24.202Z,17.24
2018-12-05T13:08:50.449Z,18.54
2018-12-05T13:11:16.589Z,20.43
2018-12-05T13:13:42.693Z,21.10
2018-12-05T13:16:08.907Z,20.58
2018-12-05T13:18:35.082Z,19.33
2018-12-05T13:21:01.329Z,19.94
2018-12-05T13:23:27.639Z,20.40
2018-12-05T13:25:53.750Z,22.36
2018-12-05T13:28:19.915Z,23.46
2018-12-05T13:30:46.141Z,26.46
2018-12-05T13:33:12.469Z,28.56
2018-12-05T13:35:38.600Z,29.64
2018-12-05T13:38:04.751Z,31.36
2018-12-05T13:40:31.836Z,32.13
2018-12-05T13:42:58.745Z,33.19
2018-12-05T13:45:25.102Z,33.50
2018-12-05T13:47:51.386Z,35.48
2018-12-05T13:50:17.707Z,37.56
2018-12-05T13:52:44.101Z,38.53
2018-12-05T13:58:06.437Z,42.45
2018-12-05T14:00:32.735Z,42.92
2018-12-05T14:03:01.161Z,43.54
2018-12-05T14:05:27.425Z,44.14
2018-12-05T14:07:53.593Z,45.10
2018-12-05T14:10:19.900Z,45.44
2018-12-05T14:12:47.776Z,46.35
2018-12-05T14:15:15.265Z,47.36
2018-12-05T14:17:41.528Z,47.73
2018-12-05T14:20:08.708Z,48.53
2018-12-05T14:22:35.271Z,48.35
2018-12-05T14:25:02.033Z,48.52
2018-12-05T14:27:29.459Z,47.77
2018-12-05T14:29:55.773Z,47.98
2018-12-05T14:32:21.978Z,47.18
2018-12-05T14:37:43.962Z,49.17
2018-12-05T14:40:10.394Z,49.20
2018-12-05T14:42:36.707Z,49.64
2018-12-05T14:45:04.012Z,50.20
2018-12-05T14:47:30.669Z,50.44
2018-12-05T14:49:57.009Z,50.71
2018-12-05T14:52:23.622Z,51.35
2018-12-05T14:54:49.820Z,51.47
2018-12-05T14:57:16.328Z,52.13
2018-12-05T14:59:42.625Z,51.93
2018-12-05T15:02:08.784Z,52.07
2018-12-05T15:04:34.989Z,52.57
2018-12-05T15:07:01.342Z,52.68
2018-12-05T15:09:27.699Z,53.03
2018-12-05T15:11:53.962Z,52.69
2018-12-05T15:14:20.234Z,53.32
2018-12-05T15:16:47.485Z,54.05
2018-12-05T15:19:13.978Z,53.61
2018-12-05T15:21:40.254Z,54.01
2018-12-05T15:24:06.637Z,53.99
2018-12-05T15:26:34.641Z,54.39
2018-12-05T15:29:01.031Z,54.61
2018-12-05T15:31:27.754Z,55.07
2018-12-05T15:33:53.972Z,55.74
2018-12-05T15:36:20.219Z,55.66
2018-12-05T15:38:46.460Z,57.05
2018-12-05T15:41:12.855Z,57.53
2018-12-05T15:43:39.209Z,56.84
2018-12-05T15:46:05.638Z,57.25
2018-12-05T15:48:31.915Z,57.97
2018-12-05T15:50:58.268Z,58.10
2018-12-05T15:53:25.396Z,59.33
2018-12-05T15:55:51.604Z,59.91
2018-12-05T15:58:17.959Z,61.23
2018-12-05T16:00:45.148Z,61.52
2018-12-05T16:03:11.439Z,61.81
2018-12-05T16:05:38.432Z,61.82
2018-12-05T16:08:04.845Z,62.04
2018-12-05T16:10:31.024Z,62.22
2018-12-05T16:12:57.193Z,62.43
2018-12-05T16:15:23.550Z,62.35
2018-12-05T16:17:50.554Z,62.02
2018-12-05T16:20:16.664Z,62.73
2018-12-05T16:22:43.206Z,62.51
2018-12-05T16:25:09.431Z,62.26
2018-12-05T16:27:35.665Z,63.05
2018-12-05T16:30:02.121Z,63.65
2018-12-05T16:32:28.324Z,63.81
2018-12-05T16:34:54.494Z,64.39
2018-12-05T16:37:20.807Z,64.84
2018-12-05T16:39:47.871Z,65.35
2018-12-05T16:42:14.207Z,64.75
2018-12-05T16:44:41.401Z,65.43
2018-12-05T16:47:07.807Z,65.48
2018-12-05T16:49:34.032Z,65.17
2018-12-05T16:52:02.174Z,65.60
2018-12-05T16:54:28.700Z,64.87
2018-12-05T16:56:54.800Z,65.66
2018-12-05T16:59:20.987Z,65.39
2018-12-05T17:01:48.365Z,66.04
2018-12-05T17:04:14.617Z,66.00
2018-12-05T17:06:40.866Z,65.42
2018-12-05T17:09:07.227Z,65.15
2018-12-05T17:11:33.842Z,65.65
2018-12-05T17:14:00.982Z,65.06
2018-12-05T17:16:27.241Z,65.59
2018-12-05T17:18:54.319Z,65.91
2018-12-05T17:21:20.728Z,66.22
2018-12-05T17:23:47.520Z,65.98
2018-12-05T17:26:15.062Z,66.47
2018-12-05T17:28:41.451Z,66.54
2018-12-05T17:31:07.720Z,66.46
2018-12-05T17:33:33.989Z,66.61
2018-12-05T17:36:00.136Z,66.70
2018-12-05T17:38:27.349Z,66.70
2018-12-05T17:40:53.772Z,66.94
2018-12-05T17:43:28.027Z,66.95
2018-12-05T17:45:54.351Z,67.56
2018-12-05T17:48:20.962Z,67.59
2018-12-05T17:50:47.268Z,67.71
2018-12-05T17:53:14.290Z,67.46
2018-12-05T17:55:40.753Z,67.78
2018-12-05T17:58:08.735Z,67.73
2018-12-05T18:00:36.303Z,67.82
2018-12-05T18:03:02.764Z,67.67
2018-12-05T18:05:28.898Z,68.07
2018-12-05T18:07:55.061Z,68.46
2018-12-05T18:10:21.358Z,68.11
2018-12-05T18:12:48.446Z,68.43
2018-12-05T18:15:14.672Z,68.15
2018-12-05T18:17:41.332Z,68.64
2018-12-05T18:20:09.581Z,68.30
2018-12-05T18:22:35.929Z,68.98
2018-12-05T18:25:02.353Z,68.83
2018-12-05T18:27:28.624Z,68.75
2018-12-05T18:29:54.842Z,69.00
2018-12-05T18:32:21.990Z,68.64
2018-12-05T18:34:48.157Z,68.35
2018-12-05T18:37:14.309Z,68.76
2018-12-05T18:39:40.622Z,68.41
2018-12-05T18:42:06.764Z,68.42
2018-12-05T18:44:34.701Z,68.12
2018-12-05T18:47:01.082Z,68.73
2018-12-05T18:49:27.358Z,68.37
2018-12-05T18:51:53.579Z,67.86
2018-12-05T18:54:20.553Z,67.82
2018-12-05T18:56:46.821Z,67.58
2018-12-05T18:59:13.169Z,68.10
2018-12-05T19:01:39.358Z,68.33
2018-12-05T19:04:05.765Z,68.38
2018-12-05T19:06:31.916Z,67.96
2018-12-05T19:08:58.177Z,68.38
2018-12-05T19:11:24.561Z,67.95
2018-12-05T19:13:57.153Z,67.77
2018-12-05T19:16:23.488Z,67.76
2018-12-05T19:18:49.719Z,68.33
2018-12-05T19:21:16.120Z,69.06
2018-12-05T19:23:42.359Z,68.11
2018-12-05T19:26:08.667Z,68.85
2018-12-05T19:28:35.113Z,68.37
2018-12-05T19:31:01.630Z,68.58
2018-12-05T19:33:27.751Z,68.82
2018-12-05T19:35:54.017Z,68.35
2018-12-05T19:38:27.153Z,68.70
2018-12-05T19:40:54.754Z,68.69
2018-12-05T19:43:20.880Z,68.24
2018-12-05T19:45:47.192Z,68.17
2018-12-05T19:48:13.427Z,68.88
2018-12-05T19:50:39.615Z,68.75
2018-12-05T19:53:06.193Z,68.76
2018-12-05T19:55:32.425Z,67.84
2018-12-05T19:57:59.493Z,67.73
2018-12-05T20:00:26.514Z,67.80
2018-12-05T20:02:52.785Z,67.99
2018-12-05T20:05:18.940Z,67.83
2018-12-05T20:07:45.136Z,67.59
2018-12-05T20:10:11.471Z,67.43
2018-12-05T20:12:37.742Z,67.22
2018-12-05T20:15:04.639Z,67.92
2018-12-05T20:17:31.154Z,67.26
2018-12-05T20:19:57.324Z,66.82
2018-12-05T20:22:23.558Z,67.11
2018-12-05T20:24:49.891Z,67.31
2018-12-05T20:27:16.080Z,67.66
2018-12-05T20:29:42.600Z,67.40
2018-12-05T20:32:08.838Z,67.01
2018-12-05T20:34:35.155Z,66.66
2018-12-05T20:40:24.779Z,66.85
2018-12-05T20:42:54.593Z,66.16
2018-12-05T20:45:21.207Z,65.74
2018-12-05T20:47:48.357Z,65.70
2018-12-05T20:50:14.642Z,65.80
2018-12-05T20:52:45.627Z,65.43
2018-12-05T20:55:12.260Z,65.44
2018-12-05T20:57:38.630Z,65.51
2018-12-05T21:00:05.348Z,64.75
2018-12-05T21:02:31.598Z,65.39
2018-12-05T21:04:57.878Z,65.16
2018-12-05T21:07:24.155Z,65.62
2018-12-05T21:09:50.230Z,65.42
2018-12-05T21:12:16.418Z,65.58
2018-12-05T21:14:42.766Z,65.52
2018-12-05T21:17:09.190Z,65.90
2018-12-05T21:19:35.424Z,65.71
2018-12-05T21:22:01.722Z,65.24
2018-12-05T21:24:27.941Z,64.94
2018-12-05T21:26:54.143Z,65.09
2018-12-05T21:29:20.356Z,65.02
2018-12-05T21:31:46.585Z,65.54
2018-12-05T21:34:12.695Z,65.52
2018-12-05T21:36:38.890Z,65.43
2018-12-05T21:39:06.612Z,65.60
2018-12-05T21:41:32.976Z,65.26
2018-12-05T21:43:59.085Z,66.05
2018-12-05T21:46:25.192Z,65.73
2018-12-05T21:48:51.431Z,65.53
2018-12-05T21:51:17.690Z,65.96
2018-12-05T21:53:43.814Z,65.59
2018-12-05T21:56:10.044Z,65.48
2018-12-05T21:58:36.163Z,64.83
2018-12-05T22:01:02.606Z,65.33
2018-12-05T22:03:28.751Z,64.74
2018-12-05T22:05:56.801Z,65.23
2018-12-05T22:08:23.510Z,65.45
2018-12-05T22:10:49.991Z,65.39
2018-12-05T22:13:16.092Z,64.90
2018-12-05T22:15:42.307Z,64.75
2018-12-05T22:18:08.486Z,65.27
2018-12-05T22:20:34.717Z,65.28
2018-12-05T22:23:01.036Z,64.72
2018-12-05T22:25:27.410Z,65.13
2018-12-05T22:27:53.588Z,65.33
2018-12-05T22:30:19.853Z,64.55
2018-12-05T22:32:45.992Z,63.68
2018-12-05T22:35:12.381Z,64.04
2018-12-05T22:37:38.607Z,63.65
2018-12-05T22:40:07.217Z,64.38
2018-12-05T22:42:33.464Z,63.97
2018-12-05T22:44:59.583Z,64.07
2018-12-05T22:47:25.819Z,63.48
2018-12-05T22:49:52.007Z,63.53
2018-12-05T22:52:18.286Z,63.53
2018-12-05T22:54:44.607Z,63.68
2018-12-05T22:57:12.661Z,64.31
2018-12-05T22:59:39.077Z,63.59
2018-12-05T23:02:05.454Z,63.55
2018-12-05T23:04:32.183Z,63.98
2018-12-05T23:06:58.314Z,63.87
2018-12-05T23:09:24.438Z,63.63
2018-12-05T23:11:50.754Z,63.45
2018-12-05T23:14:16.969Z,63.15
2018-12-05T23:16:43.365Z,62.72
2018-12-05T23:19:09.749Z,62.86
2018-12-05T23:21:36.020Z,62.20
2018-12-05T23:24:03.241Z,62.23
2018-12-05T23:26:29.455Z,61.69
2018-12-05T23:28:55.566Z,61.38
2018-12-05T23:31:21.662Z,61.39
2018-12-05T23:33:47.861Z,61.13
2018-12-05T23:36:14.126Z,61.70
2018-12-05T23:38:40.348Z,61.39
2018-12-05T23:41:06.693Z,61.07
2018-12-05T23:43:32.762Z,61.02
2018-12-05T23:45:58.862Z,61.03
2018-12-05T23:48:25.182Z,60.79
2018-12-05T23:50:51.277Z,60.26
2018-12-05T23:53:17.701Z,60.26
2018-12-05T23:55:44.113Z,59.72
2018-12-05T23:58:10.309Z,59.83
